createdAt,value
2023-08-12T00:00:11.575Z,100331.20
2023-08-12T00:03:00.185Z,100334.38
2023-08-12T00:05:28.434Z,100332.43
2023-08-12T00:07:56.393Z,100328.05
2023-08-12T00:10:24.502Z,100325.42
2023-08-12T00:12:52.531Z,100324.05
2023-08-12T00:15:20.872Z,100322.71
2023-08-12T00:17:49.073Z,100322.35
2023-08-12T00:20:17.354Z,100322.39
2023-08-12T00:22:45.509Z,100325.08
2023-08-12T00:25:13.398Z,100323.95
2023-08-12T00:27:41.531Z,100324.56
2023-08-12T00:30:14.032Z,100326.30
2023-08-12T00:32:42.253Z,100327.96
2023-08-12T00:35:10.671Z,100329.00
2023-08-12T00:37:38.711Z,100327.91
2023-08-12T00:40:07.825Z,100331.57
2023-08-12T00:42:35.779Z,100337.86
2023-08-12T00:45:04.564Z,100333.89
2023-08-12T00:47:32.783Z,100333.63
2023-08-12T00:50:00.833Z,100334.91
2023-08-12T00:52:29.195Z,100330.23
2023-08-12T00:54:57.771Z,100330.59
2023-08-12T00:57:25.962Z,100331.08
2023-08-12T00:59:56.611Z,100330.13
2023-08-12T01:02:24.945Z,100328.91
2023-08-12T01:04:53.384Z,100331.35
2023-08-12T01:07:21.538Z,100328.36
2023-08-12T01:09:49.698Z,100328.77
2023-08-12T01:12:19.737Z,100326.46
2023-08-12T01:14:52.206Z,100327.52
2023-08-12T01:17:20.357Z,100325.86
2023-08-12T01:19:48.662Z,100327.80
2023-08-12T01:22:17.547Z,100331.80
2023-08-12T01:24:45.891Z,100330.47
2023-08-12T01:27:14.287Z,100329.69
2023-08-12T01:29:45.290Z,100328.87
2023-08-12T01:32:19.060Z,100324.92
2023-08-12T01:34:51.495Z,100325.32
2023-08-12T01:37:22.951Z,100323.58
2023-08-12T01:39:52.146Z,100322.02
2023-08-12T01:42:20.488Z,100322.61
2023-08-12T01:44:48.999Z,100321.62
2023-08-12T01:47:17.224Z,100323.01
2023-08-12T01:49:46.739Z,100323.02
2023-08-12T01:52:15.609Z,100315.35
2023-08-12T01:54:43.841Z,100313.77
2023-08-12T01:57:12.098Z,100304.52
2023-08-12T01:59:40.393Z,100306.05
2023-08-12T02:02:08.467Z,100308.09
2023-08-12T02:04:37.764Z,100303.77
2023-08-12T02:07:05.832Z,100300.97
2023-08-12T02:09:53.749Z,100297.06
2023-08-12T02:12:22.099Z,100295.97
2023-08-12T02:14:50.185Z,100302.74
2023-08-12T02:17:18.186Z,100303.36
2023-08-12T02:19:46.514Z,100304.43
2023-08-12T02:22:14.790Z,100304.64
2023-08-12T02:24:42.819Z,100298.33
2023-08-12T02:27:10.954Z,100297.42
2023-08-12T02:29:42.175Z,100297.14
2023-08-12T02:32:10.171Z,100296.86
2023-08-12T02:34:38.802Z,100297.52
2023-08-12T02:37:07.048Z,100300.39
2023-08-12T02:39:35.396Z,100298.35
2023-08-12T02:42:03.683Z,100299.50
2023-08-12T02:44:31.933Z,100296.35
2023-08-12T02:47:01.385Z,100289.77
2023-08-12T02:49:29.766Z,100292.59
2023-08-12T02:51:57.625Z,100295.71
2023-08-12T02:54:25.707Z,100293.98
2023-08-12T02:56:53.829Z,100296.38
2023-08-12T02:59:21.759Z,100295.75
2023-08-12T03:01:49.814Z,100294.52
2023-08-12T03:04:17.841Z,100293.21
2023-08-12T03:06:45.940Z,100291.20
2023-08-12T03:09:15.901Z,100298.52
2023-08-12T03:11:46.200Z,100295.48
2023-08-12T03:14:14.428Z,100290.64
2023-08-12T03:16:42.460Z,100293.11
2023-08-12T03:19:10.623Z,100290.75
2023-08-12T03:21:38.705Z,100298.80
2023-08-12T03:24:07.703Z,100301.19
2023-08-12T03:26:35.732Z,100304.49
2023-08-12T03:29:03.790Z,100306.02
2023-08-12T03:31:31.879Z,100306.86
2023-08-12T03:34:00.212Z,100305.88
2023-08-12T03:36:29.268Z,100307.87
2023-08-12T03:38:57.342Z,100305.80
2023-08-12T03:41:27.210Z,100303.70
2023-08-12T03:43:55.930Z,100301.77
2023-08-12T03:46:23.971Z,100301.27
2023-08-12T03:48:52.782Z,100306.84
2023-08-12T03:51:20.824Z,100312.83
2023-08-12T03:53:48.785Z,100311.11
2023-08-12T03:56:17.060Z,100309.86
2023-08-12T03:58:45.356Z,100305.19
2023-08-12T04:01:13.426Z,100304.84
2023-08-12T04:03:41.461Z,100301.05
2023-08-12T04:06:09.633Z,100296.50
2023-08-12T04:08:37.671Z,100296.52
2023-08-12T04:11:05.707Z,100295.61
2023-08-12T04:13:33.662Z,100296.73
2023-08-12T04:16:01.733Z,100293.12
2023-08-12T04:18:29.964Z,100289.45
2023-08-12T04:20:57.786Z,100289.45
2023-08-12T04:23:25.832Z,100291.16
2023-08-12T04:25:54.351Z,100286.77
2023-08-12T04:28:23.787Z,100286.52
2023-08-12T04:30:53.089Z,100285.11
2023-08-12T04:33:21.798Z,100285.22
2023-08-12T04:35:50.221Z,100280.11
2023-08-12T04:38:18.815Z,100276.95
2023-08-12T04:40:47.371Z,100280.38
2023-08-12T04:43:15.300Z,100282.05
2023-08-12T04:45:46.965Z,100284.17
2023-08-12T04:48:15.800Z,100285.80
2023-08-12T04:50:44.090Z,100282.98
2023-08-12T04:53:12.531Z,100276.17
2023-08-12T04:55:43.071Z,100278.12
2023-08-12T04:58:12.936Z,100280.74
2023-08-12T05:00:42.719Z,100277.92
2023-08-12T05:03:12.470Z,100280.23
2023-08-12T05:05:40.450Z,100281.41
2023-08-12T05:08:08.690Z,100276.20
2023-08-12T05:10:37.240Z,100269.64
2023-08-12T05:13:05.214Z,100273.52
2023-08-12T05:15:33.149Z,100266.73
2023-08-12T05:18:01.644Z,100266.65
2023-08-12T05:20:29.993Z,100265.90
2023-08-12T05:22:59.217Z,100265.16
2023-08-12T05:25:27.838Z,100265.86
2023-08-12T05:27:56.649Z,100265.94
2023-08-12T05:30:24.704Z,100266.33
2023-08-12T05:32:52.930Z,100265.49
2023-08-12T05:35:20.950Z,100271.71
2023-08-12T05:37:49.093Z,100268.94
2023-08-12T05:40:17.737Z,100273.06
2023-08-12T05:42:45.642Z,100271.61
2023-08-12T05:45:13.694Z,100272.07
2023-08-12T05:47:42.110Z,100269.20
2023-08-12T05:50:12.837Z,100268.11
2023-08-12T05:52:41.920Z,100266.29
2023-08-12T05:55:10.207Z,100268.27
2023-08-12T05:57:38.473Z,100269.36
2023-08-12T06:00:08.693Z,100272.69
2023-08-12T06:02:39.777Z,100271.38
2023-08-12T06:05:10.160Z,100270.79
2023-08-12T06:07:38.078Z,100268.11
2023-08-12T06:10:07.085Z,100267.10
2023-08-12T06:12:34.966Z,100265.96
2023-08-12T06:15:03.193Z,100265.82
2023-08-12T06:17:31.190Z,100263.15
2023-08-12T06:19:59.531Z,100259.52
2023-08-12T06:22:27.702Z,100259.58
2023-08-12T06:24:55.775Z,100264.70
2023-08-12T06:27:23.733Z,100264.60
2023-08-12T06:29:51.701Z,100267.44
2023-08-12T06:32:19.599Z,100258.71
2023-08-12T06:34:47.532Z,100254.15
2023-08-12T06:37:15.412Z,100252.65
2023-08-12T06:39:43.412Z,100249.48
2023-08-12T06:42:12.372Z,100249.48
2023-08-12T06:44:40.865Z,100251.58
2023-08-12T06:47:08.861Z,100252.73
2023-08-12T06:49:36.786Z,100249.09
2023-08-12T06:52:05.073Z,100249.58
2023-08-12T06:54:32.962Z,100245.88
2023-08-12T06:57:00.978Z,100247.83
2023-08-12T06:59:28.798Z,100243.87
2023-08-12T07:01:56.767Z,100245.30
2023-08-12T07:04:24.796Z,100247.49
2023-08-12T07:06:52.733Z,100250.79
2023-08-12T07:09:20.735Z,100247.99
2023-08-12T07:11:48.630Z,100252.04
2023-08-12T07:14:16.586Z,100247.89
2023-08-12T07:16:44.867Z,100247.30
2023-08-12T07:19:14.440Z,100246.47
2023-08-12T07:21:44.695Z,100241.63
2023-08-12T07:24:12.653Z,100243.71
2023-08-12T07:26:40.540Z,100244.65
2023-08-12T07:29:08.612Z,100244.09
2023-08-12T07:31:36.530Z,100238.02
2023-08-12T07:34:04.955Z,100238.09
2023-08-12T07:36:33.789Z,100239.69
2023-08-12T07:39:01.916Z,100234.46
2023-08-12T07:41:30.164Z,100231.37
2023-08-12T07:43:58.362Z,100238.30
2023-08-12T07:46:26.453Z,100233.57
2023-08-12T07:48:54.446Z,100227.75
2023-08-12T07:51:22.697Z,100228.80
2023-08-12T07:53:50.985Z,100231.79
2023-08-12T07:56:19.004Z,100226.81
2023-08-12T07:58:48.242Z,100229.02
2023-08-12T08:01:16.419Z,100223.17
2023-08-12T08:03:44.450Z,100219.05
2023-08-12T08:06:12.512Z,100216.94
2023-08-12T08:08:40.499Z,100208.20
2023-08-12T08:11:08.566Z,100207.37
2023-08-12T08:13:36.622Z,100208.45
2023-08-12T08:16:04.695Z,100208.52
2023-08-12T08:18:33.231Z,100204.55
2023-08-12T08:21:05.699Z,100207.34
2023-08-12T08:23:34.661Z,100199.91
2023-08-12T08:26:03.156Z,100197.32
2023-08-12T08:28:31.341Z,100194.08
2023-08-12T08:30:59.389Z,100194.61
2023-08-12T08:33:27.659Z,100195.80
2023-08-12T08:35:55.777Z,100192.83
2023-08-12T08:38:23.831Z,100192.20
2023-08-12T08:40:52.289Z,100193.45
2023-08-12T08:43:21.665Z,100191.70
2023-08-12T08:45:50.470Z,100190.89
2023-08-12T08:48:18.894Z,100196.42
2023-08-12T08:50:47.475Z,100195.55
2023-08-12T08:53:15.589Z,100191.82
2023-08-12T08:55:43.870Z,100192.04
2023-08-12T08:58:14.999Z,100189.67
2023-08-12T09:00:49.416Z,100191.68
2023-08-12T09:03:17.488Z,100191.28
2023-08-12T09:05:45.727Z,100194.71
2023-08-12T09:08:14.342Z,100191.36
2023-08-12T09:10:42.472Z,100192.16
2023-08-12T09:13:10.671Z,100187.96
2023-08-12T09:15:38.854Z,100186.33
2023-08-12T09:18:07.028Z,100185.91
2023-08-12T09:20:34.969Z,100183.28
2023-08-12T09:23:03.520Z,100181.65
2023-08-12T09:25:31.520Z,100180.67
2023-08-12T09:28:00.332Z,100176.85
2023-08-12T09:30:31.733Z,100175.73
2023-08-12T09:33:03.831Z,100172.73
2023-08-12T09:35:36.265Z,100165.24
2023-08-12T09:38:05.670Z,100162.80
2023-08-12T09:40:35.130Z,100161.27
2023-08-12T09:43:03.047Z,100159.06
2023-08-12T09:45:31.855Z,100156.81
2023-08-12T09:48:00.896Z,100158.98
2023-08-12T09:50:29.889Z,100156.50
2023-08-12T09:52:58.872Z,100154.70
2023-08-12T09:55:26.844Z,100154.73
2023-08-12T09:57:55.485Z,100149.50
2023-08-12T10:00:24.134Z,100153.02
2023-08-12T10:02:54.211Z,100148.79
2023-08-12T10:05:23.744Z,100148.07
2023-08-12T10:07:52.228Z,100142.31
2023-08-12T10:10:24.295Z,100141.84
2023-08-12T10:12:52.350Z,100141.40
2023-08-12T10:15:24.134Z,100141.05
2023-08-12T10:17:57.802Z,100138.88
2023-08-12T10:20:25.991Z,100133.60
2023-08-12T10:22:55.262Z,100131.86
2023-08-12T10:25:27.398Z,100129.70
2023-08-12T10:27:56.490Z,100132.14
2023-08-12T10:30:24.973Z,100124.79
2023-08-12T10:32:54.432Z,100126.34
2023-08-12T10:35:41.132Z,100122.60
2023-08-12T10:38:19.078Z,100119.27
2023-08-12T10:40:51.205Z,100114.37
2023-08-12T10:43:19.474Z,100115.85
2023-08-12T10:45:50.326Z,100109.61
2023-08-12T10:48:24.178Z,100111.63
2023-08-12T10:50:55.499Z,100110.52
2023-08-12T10:53:26.453Z,100102.23
2023-08-12T10:55:56.868Z,100099.34
2023-08-12T10:58:28.488Z,100100.20
2023-08-12T11:00:56.983Z,100097.89
2023-08-12T11:03:25.192Z,100098.31
2023-08-12T11:05:56.194Z,100099.97
2023-08-12T11:08:28.466Z,100095.92
2023-08-12T11:10:57.858Z,100093.82
2023-08-12T11:13:28.812Z,100090.77
2023-08-12T11:16:08.541Z,100087.14
2023-08-12T11:18:36.657Z,100087.90
2023-08-12T11:21:05.490Z,100086.20
2023-08-12T11:23:33.744Z,100085.14
2023-08-12T11:26:01.924Z,100075.95
2023-08-12T11:28:29.865Z,100075.77
2023-08-12T11:30:57.943Z,100072.11
2023-08-12T11:33:25.845Z,100071.44
2023-08-12T11:35:53.884Z,100070.06
2023-08-12T11:38:22.006Z,100066.90
2023-08-12T11:40:51.108Z,100060.31
2023-08-12T11:43:22.347Z,100063.27
2023-08-12T11:45:50.358Z,100059.40
2023-08-12T11:48:18.353Z,100052.80
2023-08-12T11:50:46.591Z,100049.50
2023-08-12T11:53:14.795Z,100049.48
2023-08-12T11:55:42.890Z,100044.56
2023-08-12T11:58:12.506Z,100038.94
2023-08-12T12:00:40.677Z,100037.79
2023-08-12T12:03:08.860Z,100037.45
2023-08-12T12:05:37.122Z,100032.87
2023-08-12T12:08:05.726Z,100029.00
2023-08-12T12:10:35.704Z,100028.21
2023-08-12T12:13:05.060Z,100021.34
2023-08-12T12:15:38.931Z,100017.73
2023-08-12T12:18:10.830Z,100016.03
2023-08-12T12:20:42.775Z,100011.70
2023-08-12T12:23:11.093Z,100008.41
2023-08-12T12:25:41.910Z,100009.96
2023-08-12T12:28:10.148Z,100004.13
2023-08-12T12:30:38.114Z,100003.92
2023-08-12T12:33:06.464Z,100006.39
2023-08-12T12:35:43.945Z,99999.15
2023-08-12T12:38:19.784Z,99990.86
2023-08-12T12:40:47.743Z,99994.50
2023-08-12T12:43:15.822Z,99992.44
2023-08-12T12:45:43.883Z,99990.56
2023-08-12T12:48:12.081Z,99986.50
2023-08-12T12:50:40.057Z,99983.63
2023-08-12T12:53:07.950Z,99978.70
2023-08-12T12:55:35.895Z,99974.13
2023-08-12T12:58:04.060Z,99976.88
2023-08-12T13:00:31.940Z,99972.92
2023-08-12T13:02:59.999Z,99974.52
2023-08-12T13:05:28.501Z,99971.60
2023-08-12T13:07:56.552Z,99964.52
2023-08-12T13:10:24.516Z,99963.38
2023-08-12T13:12:52.362Z,99960.20
2023-08-12T13:15:20.384Z,99955.61
2023-08-12T13:17:48.510Z,99957.04
2023-08-12T13:20:16.638Z,99951.91
2023-08-12T13:22:44.742Z,99950.65
2023-08-12T13:25:13.047Z,99948.49
2023-08-12T13:27:41.644Z,99951.33
2023-08-12T13:30:11.580Z,99946.83
2023-08-12T13:32:39.499Z,99942.06
2023-08-12T13:35:08.471Z,99935.34
2023-08-12T13:37:36.334Z,99930.98
2023-08-12T13:40:05.761Z,99932.83
2023-08-12T13:42:33.778Z,99931.86
2023-08-12T13:45:01.727Z,99927.56
2023-08-12T13:47:29.703Z,99917.81
2023-08-12T13:49:58.201Z,99914.90
2023-08-12T13:52:26.100Z,99911.33
2023-08-12T13:54:54.409Z,99907.78
2023-08-12T13:57:22.358Z,99909.15
2023-08-12T13:59:50.655Z,99898.98
2023-08-12T14:02:18.592Z,99898.04
2023-08-12T14:04:46.681Z,99903.04
2023-08-12T14:07:14.566Z,99898.30
2023-08-12T14:09:43.138Z,99896.55
2023-08-12T14:12:11.599Z,99888.36
2023-08-12T14:14:40.622Z,99892.41
2023-08-12T14:17:08.907Z,99890.52
2023-08-12T14:19:36.939Z,99894.72
2023-08-12T14:22:05.119Z,99891.08
2023-08-12T14:24:33.179Z,99886.92
2023-08-12T14:27:01.154Z,99887.65
2023-08-12T14:29:29.487Z,99884.28
2023-08-12T14:31:57.457Z,99881.48
2023-08-12T14:34:25.285Z,99878.29
2023-08-12T14:36:54.821Z,99870.91
2023-08-12T14:39:23.719Z,99869.52
2023-08-12T14:41:51.823Z,99869.00
2023-08-12T14:44:21.610Z,99868.19
2023-08-12T14:46:50.436Z,99864.17
2023-08-12T14:49:19.655Z,99860.27
2023-08-12T14:51:47.978Z,99859.98
2023-08-12T14:54:16.179Z,99853.67
2023-08-12T14:56:46.530Z,99854.31
2023-08-12T14:59:14.685Z,99853.42
2023-08-12T15:01:45.507Z,99856.36
2023-08-12T15:04:14.300Z,99849.39
2023-08-12T15:06:44.913Z,99846.14
2023-08-12T15:09:15.648Z,99846.33
2023-08-12T15:11:43.644Z,99843.02
2023-08-12T15:14:12.067Z,99842.10
2023-08-12T15:16:40.087Z,99843.30
2023-08-12T15:19:08.485Z,99842.41
2023-08-12T15:21:36.477Z,99837.54
2023-08-12T15:24:05.892Z,99839.35
2023-08-12T15:26:34.222Z,99836.34
2023-08-12T15:29:02.339Z,99837.83
2023-08-12T15:31:30.588Z,99838.71
2023-08-12T15:33:58.685Z,99839.23
2023-08-12T15:36:26.737Z,99839.48
2023-08-12T15:38:54.728Z,99838.29
2023-08-12T15:41:22.992Z,99837.99
2023-08-12T15:43:50.909Z,99842.95
2023-08-12T15:46:19.019Z,99840.27
2023-08-12T15:48:46.989Z,99834.35
2023-08-12T15:51:14.853Z,99830.52
2023-08-12T15:53:42.827Z,99827.19
2023-08-12T15:56:10.676Z,99828.14
2023-08-12T15:58:38.708Z,99825.64
2023-08-12T16:01:07.411Z,99822.06
2023-08-12T16:03:35.812Z,99820.51
2023-08-12T16:06:04.036Z,99819.35
2023-08-12T16:08:32.139Z,99819.83
2023-08-12T16:11:00.060Z,99819.54
2023-08-12T16:13:27.928Z,99820.20
2023-08-12T16:15:56.003Z,99819.88
2023-08-12T16:18:24.698Z,99816.89
2023-08-12T16:20:52.668Z,99817.05
2023-08-12T16:23:21.184Z,99811.58
2023-08-12T16:25:49.374Z,99805.11
2023-08-12T16:28:17.368Z,99802.34
2023-08-12T16:30:45.520Z,99800.86
2023-08-12T16:33:13.650Z,99800.61
2023-08-12T16:35:41.811Z,99801.06
2023-08-12T16:38:10.226Z,99797.64
2023-08-12T16:40:38.101Z,99794.65
2023-08-12T16:43:05.895Z,99789.08
2023-08-12T16:45:34.464Z,99790.88
2023-08-12T16:48:02.488Z,99792.00
2023-08-12T16:50:30.783Z,99786.71
2023-08-12T16:52:58.833Z,99789.04
2023-08-12T16:55:28.359Z,99790.45
2023-08-12T16:57:57.295Z,99787.27
2023-08-12T17:00:26.031Z,99783.88
2023-08-12T17:03:02.329Z,99783.75
2023-08-12T17:05:30.903Z,99780.91
2023-08-12T17:07:59.002Z,99781.58
2023-08-12T17:10:30.869Z,99778.06
2023-08-12T17:13:02.682Z,99783.01
2023-08-12T17:15:33.300Z,99780.84
2023-08-12T17:18:03.234Z,99781.05
2023-08-12T17:20:31.404Z,99783.66
2023-08-12T17:22:59.321Z,99785.13
2023-08-12T17:25:31.335Z,99791.03
2023-08-12T17:28:02.961Z,99796.27
2023-08-12T17:30:32.325Z,99800.03
2023-08-12T17:33:00.962Z,99802.14
2023-08-12T17:35:38.331Z,99800.79
2023-08-12T17:38:09.627Z,99805.09
2023-08-12T17:40:41.619Z,99805.49
2023-08-12T17:43:12.156Z,99805.14
2023-08-12T17:45:41.519Z,99801.43
2023-08-12T17:48:09.543Z,99799.83
2023-08-12T17:50:40.595Z,99800.36
2023-08-12T17:53:09.148Z,99802.95
2023-08-12T17:55:37.687Z,99804.06
2023-08-12T17:58:05.756Z,99804.40
2023-08-12T18:00:34.353Z,99808.34
2023-08-12T18:03:02.515Z,99808.08
2023-08-12T18:05:31.410Z,99810.45
2023-08-12T18:07:59.945Z,99816.15
2023-08-12T18:10:31.330Z,99814.30
2023-08-12T18:12:59.349Z,99811.18
2023-08-12T18:15:27.980Z,99813.83
2023-08-12T18:17:57.053Z,99811.59
2023-08-12T18:20:28.877Z,99810.89
2023-08-12T18:22:58.707Z,99814.78
2023-08-12T18:25:26.708Z,99820.42
2023-08-12T18:27:56.589Z,99822.35
2023-08-12T18:30:26.784Z,99826.14
2023-08-12T18:32:55.001Z,99827.59
2023-08-12T18:35:24.870Z,99832.45
2023-08-12T18:37:55.037Z,99833.85
2023-08-12T18:40:23.189Z,99836.08
2023-08-12T18:42:51.236Z,99837.84
2023-08-12T18:45:19.530Z,99841.33
2023-08-12T18:47:47.584Z,99843.44
2023-08-12T18:50:15.691Z,99841.17
2023-08-12T18:52:47.312Z,99838.95
2023-08-12T18:55:17.346Z,99842.34
2023-08-12T18:57:45.308Z,99837.91
2023-08-12T19:00:15.840Z,99834.00
2023-08-12T19:02:45.868Z,99831.70
2023-08-12T19:05:17.303Z,99836.41
2023-08-12T19:07:45.423Z,99835.20
2023-08-12T19:10:13.602Z,99836.45
2023-08-12T19:12:45.565Z,99835.19
2023-08-12T19:15:16.962Z,99830.83
2023-08-12T19:17:45.388Z,99829.95
2023-08-12T19:20:16.957Z,99830.47
2023-08-12T19:22:46.333Z,99833.87
2023-08-12T19:25:17.018Z,99839.13
2023-08-12T19:27:44.995Z,99841.58
2023-08-12T19:30:14.579Z,99840.96
2023-08-12T19:32:50.579Z,99848.16
2023-08-12T19:35:19.087Z,99852.06
2023-08-12T19:37:48.591Z,99856.73
2023-08-12T19:40:17.045Z,99859.97
2023-08-12T19:42:48.187Z,99860.92
2023-08-12T19:45:18.267Z,99862.00
2023-08-12T19:47:48.831Z,99856.95
2023-08-12T19:50:17.863Z,99854.52
2023-08-12T19:52:46.224Z,99852.92
2023-08-12T19:55:14.412Z,99847.61
2023-08-12T19:57:45.602Z,99851.39
2023-08-12T20:00:16.407Z,99850.53
2023-08-12T20:02:45.733Z,99855.73
2023-08-12T20:05:15.213Z,99853.83
2023-08-12T20:07:46.861Z,99849.73
2023-08-12T20:10:15.439Z,99847.79
2023-08-12T20:12:43.669Z,99849.45
2023-08-12T20:15:12.485Z,99849.04
2023-08-12T20:17:41.671Z,99848.80
2023-08-12T20:20:12.527Z,99847.51
2023-08-12T20:22:50.516Z,99849.94
2023-08-12T20:25:22.991Z,99850.14
2023-08-12T20:27:51.283Z,99847.87
2023-08-12T20:30:19.227Z,99847.02
2023-08-12T20:32:47.385Z,99848.53
2023-08-12T20:35:15.427Z,99846.20
2023-08-12T20:37:45.748Z,99846.36
2023-08-12T20:40:14.347Z,99846.71
2023-08-12T20:42:42.480Z,99845.91
2023-08-12T20:45:12.791Z,99850.45
2023-08-12T20:47:41.800Z,99850.66
2023-08-12T20:50:13.053Z,99846.80
2023-08-12T20:52:40.994Z,99843.89
2023-08-12T20:55:09.885Z,99842.77
2023-08-12T20:57:37.957Z,99836.20
2023-08-12T21:00:07.079Z,99834.23
2023-08-12T21:02:35.415Z,99834.73
2023-08-12T21:05:10.362Z,99835.59
2023-08-12T21:07:38.343Z,99834.90
2023-08-12T21:10:07.065Z,99838.84
2023-08-12T21:12:35.107Z,99837.02
2023-08-12T21:15:03.482Z,99833.38
2023-08-12T21:17:31.730Z,99831.80
2023-08-12T21:19:59.742Z,99828.91
2023-08-12T21:22:27.915Z,99828.27
2023-08-12T21:24:55.882Z,99824.41
2023-08-12T21:27:23.951Z,99824.38
2023-08-12T21:29:52.323Z,99818.44
2023-08-12T21:32:20.279Z,99817.31
2023-08-12T21:34:48.213Z,99813.21
2023-08-12T21:37:16.245Z,99811.69
2023-08-12T21:39:44.163Z,99816.52
2023-08-12T21:42:12.485Z,99819.01
2023-08-12T21:44:40.691Z,99820.55
2023-08-12T21:47:08.683Z,99820.17
2023-08-12T21:49:36.935Z,99823.42
2023-08-12T21:52:05.081Z,99825.04
2023-08-12T21:54:32.981Z,99821.60
2023-08-12T21:57:00.983Z,99819.08
2023-08-12T21:59:29.230Z,99818.05
2023-08-12T22:01:57.244Z,99814.98
2023-08-12T22:04:25.013Z,99820.39
2023-08-12T22:06:53.128Z,99824.78
2023-08-12T22:09:21.080Z,99823.48
2023-08-12T22:11:48.987Z,99816.36
2023-08-12T22:14:17.091Z,99811.60
2023-08-12T22:16:45.643Z,99810.81
2023-08-12T22:19:13.783Z,99811.08
2023-08-12T22:21:41.741Z,99808.94
2023-08-12T22:24:09.873Z,99814.33
2023-08-12T22:26:37.969Z,99815.10
2023-08-12T22:29:06.018Z,99815.80
2023-08-12T22:31:34.064Z,99811.31
2023-08-12T22:34:04.978Z,99811.81
2023-08-12T22:36:32.987Z,99813.33
2023-08-12T22:39:01.025Z,99817.77
2023-08-12T22:41:29.182Z,99816.96
2023-08-12T22:43:57.190Z,99817.86
2023-08-12T22:46:25.465Z,99813.34
2023-08-12T22:48:53.515Z,99810.61
2023-08-12T22:51:21.805Z,99810.05
2023-08-12T22:53:49.831Z,99814.23
2023-08-12T22:56:17.971Z,99824.70
2023-08-12T22:58:45.983Z,99825.27
2023-08-12T23:01:14.119Z,99823.98
2023-08-12T23:03:42.349Z,99820.41
2023-08-12T23:06:10.461Z,99816.41
2023-08-12T23:08:38.422Z,99814.10
2023-08-12T23:11:06.363Z,99815.26
2023-08-12T23:13:34.222Z,99816.33
2023-08-12T23:16:02.150Z,99819.63
2023-08-12T23:18:30.370Z,99819.34
2023-08-12T23:20:59.395Z,99821.27
2023-08-12T23:23:27.387Z,99823.66
2023-08-12T23:25:55.324Z,99825.35
2023-08-12T23:28:23.248Z,99827.83
2023-08-12T23:30:51.336Z,99833.41
2023-08-12T23:33:19.387Z,99837.74
2023-08-12T23:35:47.334Z,99843.09
2023-08-12T23:38:15.384Z,99840.11
2023-08-12T23:40:43.514Z,99837.63
2023-08-12T23:43:11.450Z,99832.66
2023-08-12T23:45:39.504Z,99828.69
2023-08-12T23:48:08.027Z,99830.18
2023-08-12T23:50:38.864Z,99830.96
2023-08-12T23:53:07.603Z,99830.98
2023-08-12T23:55:35.522Z,99831.92
2023-08-12T23:58:03.713Z,99832.15
